sensor_id;sensor_type;location;lat;lon;timestamp;P1;durP1;ratioP1;P2;durP2;ratioP2
15116;SDS011;7659;51.038;13.786;2024-03-22T00:01:50;8.68;;;6.65;;
15116;SDS011;7659;51.038;13.786;2024-03-22T00:04:16;12.35;;;7.53;;
15116;SDS011;7659;51.038;13.786;2024-03-22T00:06:42;9.85;;;7.57;;
15116;SDS011;7659;51.038;13.786;2024-03-22T00:09:07;12.57;;;8.35;;
15116;SDS011;7659;51.038;13.786;2024-03-22T00:11:33;11.98;;;8.60;;
15116;SDS011;7659;51.038;13.786;2024-03-22T00:13:58;10.13;;;7.68;;
15116;SDS011;7659;51.038;13.786;2024-03-22T00:16:24;12.60;;;9.35;;
15116;SDS011;7659;51.038;13.786;2024-03-22T00:18:49;14.10;;;9.30;;
15116;SDS011;7659;51.038;13.786;2024-03-22T00:21:15;14.43;;;10.70;;
15116;SDS011;7659;51.038;13.786;2024-03-22T00:23:40;13.52;;;9.30;;
15116;SDS011;7659;51.038;13.786;2024-03-22T00:26:06;16.67;;;9.52;;
15116;SDS011;7659;51.038;13.786;2024-03-22T00:28:32;15.27;;;10.15;;
15116;SDS011;7659;51.038;13.786;2024-03-22T00:30:57;14.88;;;10.60;;
15116;SDS011;7659;51.038;13.786;2024-03-22T00:33:23;13.30;;;9.10;;
15116;SDS011;7659;51.038;13.786;2024-03-22T00:35:48;17.63;;;10.40;;
15116;SDS011;7659;51.038;13.786;2024-03-22T00:38:13;14.70;;;10.25;;
15116;SDS011;7659;51.038;13.786;2024-03-22T00:40:39;15.48;;;10.52;;
15116;SDS011;7659;51.038;13.786;2024-03-22T00:43:04;21.25;;;11.18;;
15116;SDS011;7659;51.038;13.786;2024-03-22T00:45:29;17.50;;;11.18;;
15116;SDS011;7659;51.038;13.786;2024-03-22T00:47:55;18.45;;;11.20;;
15116;SDS011;7659;51.038;13.786;2024-03-22T00:50:20;19.13;;;11.60;;
15116;SDS011;7659;51.038;13.786;2024-03-22T00:52:46;18.33;;;11.63;;
15116;SDS011;7659;51.038;13.786;2024-03-22T00:55:11;15.02;;;11.07;;
15116;SDS011;7659;51.038;13.786;2024-03-22T00:57:37;17.90;;;11.93;;
15116;SDS011;7659;51.038;13.786;2024-03-22T01:00:02;13.88;;;10.70;;
15116;SDS011;7659;51.038;13.786;2024-03-22T01:02:28;16.50;;;11.25;;
15116;SDS011;7659;51.038;13.786;2024-03-22T01:04:54;16.45;;;10.70;;
15116;SDS011;7659;51.038;13.786;2024-03-22T01:07:19;17.30;;;12.00;;
15116;SDS011;7659;51.038;13.786;2024-03-22T01:09:45;19.75;;;12.35;;
15116;SDS011;7659;51.038;13.786;2024-03-22T01:12:10;16.00;;;11.23;;
15116;SDS011;7659;51.038;13.786;2024-03-22T01:14:35;17.65;;;11.73;;
15116;SDS011;7659;51.038;13.786;2024-03-22T01:17:01;18.92;;;12.30;;
15116;SDS011;7659;51.038;13.786;2024-03-22T01:19:26;17.88;;;11.93;;
15116;SDS011;7659;51.038;13.786;2024-03-22T01:21:52;19.50;;;12.70;;
15116;SDS011;7659;51.038;13.786;2024-03-22T01:24:17;18.90;;;12.15;;
15116;SDS011;7659;51.038;13.786;2024-03-22T01:26:42;18.15;;;11.70;;
15116;SDS011;7659;51.038;13.786;2024-03-22T01:29:08;18.17;;;11.73;;
15116;SDS011;7659;51.038;13.786;2024-03-22T01:31:33;17.13;;;11.82;;
15116;SDS011;7659;51.038;13.786;2024-03-22T01:33:59;18.50;;;11.55;;
15116;SDS011;7659;51.038;13.786;2024-03-22T01:36:24;17.02;;;12.57;;
15116;SDS011;7659;51.038;13.786;2024-03-22T01:38:50;18.40;;;12.00;;
15116;SDS011;7659;51.038;13.786;2024-03-22T01:41:15;18.25;;;12.05;;
15116;SDS011;7659;51.038;13.786;2024-03-22T01:43:40;20.02;;;12.25;;
15116;SDS011;7659;51.038;13.786;2024-03-22T01:46:06;17.55;;;11.98;;
15116;SDS011;7659;51.038;13.786;2024-03-22T01:48:33;16.83;;;11.70;;
15116;SDS011;7659;51.038;13.786;2024-03-22T01:50:59;18.75;;;11.50;;
15116;SDS011;7659;51.038;13.786;2024-03-22T01:53:24;18.85;;;12.38;;
15116;SDS011;7659;51.038;13.786;2024-03-22T01:55:50;18.17;;;11.15;;
15116;SDS011;7659;51.038;13.786;2024-03-22T01:58:15;19.05;;;11.95;;
15116;SDS011;7659;51.038;13.786;2024-03-22T02:00:41;19.95;;;11.60;;
15116;SDS011;7659;51.038;13.786;2024-03-22T02:03:07;16.85;;;12.25;;
15116;SDS011;7659;51.038;13.786;2024-03-22T02:05:32;16.95;;;12.20;;
15116;SDS011;7659;51.038;13.786;2024-03-22T02:07:57;19.55;;;11.50;;
15116;SDS011;7659;51.038;13.786;2024-03-22T02:10:23;19.70;;;12.55;;
15116;SDS011;7659;51.038;13.786;2024-03-22T02:12:48;15.90;;;11.40;;
15116;SDS011;7659;51.038;13.786;2024-03-22T02:15:14;17.63;;;12.32;;
15116;SDS011;7659;51.038;13.786;2024-03-22T02:17:39;18.88;;;12.25;;
15116;SDS011;7659;51.038;13.786;2024-03-22T02:20:05;16.48;;;11.38;;
15116;SDS011;7659;51.038;13.786;2024-03-22T02:22:31;17.63;;;11.45;;
15116;SDS011;7659;51.038;13.786;2024-03-22T02:24:56;16.70;;;11.52;;
15116;SDS011;7659;51.038;13.786;2024-03-22T02:27:22;16.70;;;11.60;;
15116;SDS011;7659;51.038;13.786;2024-03-22T02:29:47;15.75;;;10.77;;
15116;SDS011;7659;51.038;13.786;2024-03-22T02:32:13;18.23;;;11.80;;
15116;SDS011;7659;51.038;13.786;2024-03-22T02:34:38;20.55;;;12.07;;
15116;SDS011;7659;51.038;13.786;2024-03-22T02:37:04;17.08;;;11.55;;
15116;SDS011;7659;51.038;13.786;2024-03-22T02:39:29;20.20;;;13.07;;
15116;SDS011;7659;51.038;13.786;2024-03-22T02:41:55;21.30;;;12.82;;
15116;SDS011;7659;51.038;13.786;2024-03-22T02:44:21;20.58;;;13.18;;
15116;SDS011;7659;51.038;13.786;2024-03-22T02:46:46;18.80;;;12.95;;
15116;SDS011;7659;51.038;13.786;2024-03-22T02:49:12;21.80;;;13.73;;
15116;SDS011;7659;51.038;13.786;2024-03-22T02:51:37;19.45;;;13.40;;
15116;SDS011;7659;51.038;13.786;2024-03-22T02:54:03;21.92;;;13.80;;
15116;SDS011;7659;51.038;13.786;2024-03-22T02:56:29;21.05;;;13.48;;
15116;SDS011;7659;51.038;13.786;2024-03-22T02:58:54;18.83;;;13.73;;
15116;SDS011;7659;51.038;13.786;2024-03-22T03:01:20;20.95;;;13.50;;
15116;SDS011;7659;51.038;13.786;2024-03-22T03:03:45;20.05;;;14.13;;
15116;SDS011;7659;51.038;13.786;2024-03-22T03:06:10;21.52;;;14.18;;
15116;SDS011;7659;51.038;13.786;2024-03-22T03:08:38;22.05;;;14.20;;
15116;SDS011;7659;51.038;13.786;2024-03-22T03:11:04;21.95;;;14.35;;
15116;SDS011;7659;51.038;13.786;2024-03-22T03:13:29;21.50;;;14.00;;
15116;SDS011;7659;51.038;13.786;2024-03-22T03:15:54;21.85;;;14.57;;
15116;SDS011;7659;51.038;13.786;2024-03-22T03:18:20;24.42;;;14.80;;
15116;SDS011;7659;51.038;13.786;2024-03-22T03:20:45;21.75;;;15.13;;
15116;SDS011;7659;51.038;13.786;2024-03-22T03:23:11;26.58;;;15.75;;
15116;SDS011;7659;51.038;13.786;2024-03-22T03:25:36;23.85;;;15.38;;
15116;SDS011;7659;51.038;13.786;2024-03-22T03:28:01;23.60;;;15.45;;
15116;SDS011;7659;51.038;13.786;2024-03-22T03:30:27;21.70;;;14.30;;
15116;SDS011;7659;51.038;13.786;2024-03-22T03:32:52;22.40;;;15.10;;
15116;SDS011;7659;51.038;13.786;2024-03-22T03:35:18;22.92;;;15.75;;
15116;SDS011;7659;51.038;13.786;2024-03-22T03:37:43;22.75;;;14.50;;
15116;SDS011;7659;51.038;13.786;2024-03-22T03:40:09;23.55;;;15.65;;
15116;SDS011;7659;51.038;13.786;2024-03-22T03:42:34;23.40;;;15.15;;
15116;SDS011;7659;51.038;13.786;2024-03-22T03:45:00;22.65;;;16.02;;
15116;SDS011;7659;51.038;13.786;2024-03-22T03:47:25;24.80;;;16.40;;
15116;SDS011;7659;51.038;13.786;2024-03-22T03:49:50;22.75;;;14.90;;
15116;SDS011;7659;51.038;13.786;2024-03-22T03:52:17;21.25;;;15.35;;
15116;SDS011;7659;51.038;13.786;2024-03-22T03:54:43;21.45;;;15.75;;
15116;SDS011;7659;51.038;13.786;2024-03-22T03:57:08;25.23;;;16.52;;
15116;SDS011;7659;51.038;13.786;2024-03-22T03:59:34;25.17;;;17.35;;
15116;SDS011;7659;51.038;13.786;2024-03-22T04:01:59;27.40;;;17.02;;
15116;SDS011;7659;51.038;13.786;2024-03-22T04:04:25;25.38;;;15.65;;
15116;SDS011;7659;51.038;13.786;2024-03-22T04:06:50;24.35;;;15.98;;
15116;SDS011;7659;51.038;13.786;2024-03-22T04:09:16;26.00;;;16.13;;
15116;SDS011;7659;51.038;13.786;2024-03-22T04:11:41;24.45;;;16.58;;
15116;SDS011;7659;51.038;13.786;2024-03-22T04:14:06;25.92;;;16.33;;
15116;SDS011;7659;51.038;13.786;2024-03-22T04:16:32;24.88;;;16.50;;
15116;SDS011;7659;51.038;13.786;2024-03-22T04:18:57;27.10;;;16.63;;
15116;SDS011;7659;51.038;13.786;2024-03-22T04:21:23;25.83;;;16.10;;
15116;SDS011;7659;51.038;13.786;2024-03-22T04:23:48;26.98;;;16.77;;
15116;SDS011;7659;51.038;13.786;2024-03-22T04:26:14;24.67;;;17.08;;
15116;SDS011;7659;51.038;13.786;2024-03-22T04:28:40;26.85;;;17.52;;
15116;SDS011;7659;51.038;13.786;2024-03-22T04:31:06;27.73;;;18.08;;
15116;SDS011;7659;51.038;13.786;2024-03-22T04:33:34;27.58;;;17.63;;
15116;SDS011;7659;51.038;13.786;2024-03-22T04:35:59;25.13;;;16.92;;
15116;SDS011;7659;51.038;13.786;2024-03-22T04:38:26;30.40;;;17.98;;
15116;SDS011;7659;51.038;13.786;2024-03-22T04:40:52;28.90;;;18.95;;
15116;SDS011;7659;51.038;13.786;2024-03-22T04:43:18;28.05;;;18.70;;
15116;SDS011;7659;51.038;13.786;2024-03-22T04:45:44;29.58;;;18.25;;
15116;SDS011;7659;51.038;13.786;2024-03-22T04:48:09;28.45;;;18.05;;
15116;SDS011;7659;51.038;13.786;2024-03-22T04:50:35;26.50;;;18.02;;
15116;SDS011;7659;51.038;13.786;2024-03-22T04:53:01;28.73;;;19.88;;
15116;SDS011;7659;51.038;13.786;2024-03-22T04:55:26;31.13;;;18.67;;
15116;SDS011;7659;51.038;13.786;2024-03-22T04:57:52;27.40;;;18.30;;
15116;SDS011;7659;51.038;13.786;2024-03-22T05:00:17;27.30;;;17.80;;
15116;SDS011;7659;51.038;13.786;2024-03-22T05:02:43;27.50;;;18.60;;
15116;SDS011;7659;51.038;13.786;2024-03-22T05:05:08;28.15;;;18.10;;
15116;SDS011;7659;51.038;13.786;2024-03-22T05:07:35;28.25;;;17.17;;
15116;SDS011;7659;51.038;13.786;2024-03-22T05:10:01;25.25;;;17.05;;
15116;SDS011;7659;51.038;13.786;2024-03-22T05:12:27;25.48;;;17.10;;
15116;SDS011;7659;51.038;13.786;2024-03-22T05:14:52;27.65;;;15.55;;
15116;SDS011;7659;51.038;13.786;2024-03-22T05:17:17;24.83;;;16.50;;
15116;SDS011;7659;51.038;13.786;2024-03-22T05:19:43;26.90;;;17.08;;
15116;SDS011;7659;51.038;13.786;2024-03-22T05:22:08;22.67;;;15.27;;
15116;SDS011;7659;51.038;13.786;2024-03-22T05:24:34;24.15;;;15.88;;
15116;SDS011;7659;51.038;13.786;2024-03-22T05:26:59;27.90;;;15.05;;
15116;SDS011;7659;51.038;13.786;2024-03-22T05:29:25;21.67;;;15.63;;
15116;SDS011;7659;51.038;13.786;2024-03-22T05:31:50;26.40;;;16.40;;
15116;SDS011;7659;51.038;13.786;2024-03-22T05:34:19;24.63;;;16.33;;
15116;SDS011;7659;51.038;13.786;2024-03-22T05:36:45;27.38;;;16.40;;
15116;SDS011;7659;51.038;13.786;2024-03-22T05:39:10;26.05;;;16.10;;
15116;SDS011;7659;51.038;13.786;2024-03-22T05:41:36;29.08;;;18.05;;
15116;SDS011;7659;51.038;13.786;2024-03-22T05:44:02;26.63;;;15.93;;
15116;SDS011;7659;51.038;13.786;2024-03-22T05:46:28;23.85;;;16.13;;
15116;SDS011;7659;51.038;13.786;2024-03-22T05:48:53;25.48;;;16.00;;
15116;SDS011;7659;51.038;13.786;2024-03-22T05:51:19;25.20;;;15.82;;
15116;SDS011;7659;51.038;13.786;2024-03-22T05:53:44;28.33;;;16.13;;
15116;SDS011;7659;51.038;13.786;2024-03-22T05:56:10;24.45;;;15.73;;
15116;SDS011;7659;51.038;13.786;2024-03-22T05:58:35;24.70;;;16.13;;
15116;SDS011;7659;51.038;13.786;2024-03-22T06:01:02;28.42;;;16.42;;
15116;SDS011;7659;51.038;13.786;2024-03-22T06:03:28;25.52;;;15.68;;
15116;SDS011;7659;51.038;13.786;2024-03-22T06:05:53;28.45;;;15.60;;
15116;SDS011;7659;51.038;13.786;2024-03-22T06:08:21;23.15;;;15.15;;
15116;SDS011;7659;51.038;13.786;2024-03-22T06:10:47;29.95;;;16.88;;
15116;SDS011;7659;51.038;13.786;2024-03-22T06:13:12;29.02;;;17.55;;
15116;SDS011;7659;51.038;13.786;2024-03-22T06:15:38;27.38;;;18.58;;
15116;SDS011;7659;51.038;13.786;2024-03-22T06:18:03;28.10;;;18.05;;
15116;SDS011;7659;51.038;13.786;2024-03-22T06:20:29;31.30;;;19.70;;
15116;SDS011;7659;51.038;13.786;2024-03-22T06:22:55;30.48;;;19.23;;
15116;SDS011;7659;51.038;13.786;2024-03-22T06:25:21;28.48;;;19.55;;
15116;SDS011;7659;51.038;13.786;2024-03-22T06:27:46;27.63;;;17.05;;
15116;SDS011;7659;51.038;13.786;2024-03-22T06:30:11;26.10;;;17.38;;
15116;SDS011;7659;51.038;13.786;2024-03-22T06:32:37;25.10;;;16.50;;
15116;SDS011;7659;51.038;13.786;2024-03-22T06:35:03;33.03;;;20.13;;
15116;SDS011;7659;51.038;13.786;2024-03-22T06:37:28;34.85;;;22.20;;
15116;SDS011;7659;51.038;13.786;2024-03-22T06:39:54;34.40;;;22.00;;
15116;SDS011;7659;51.038;13.786;2024-03-22T06:42:19;28.55;;;17.77;;
15116;SDS011;7659;51.038;13.786;2024-03-22T06:44:44;26.40;;;16.42;;
15116;SDS011;7659;51.038;13.786;2024-03-22T06:47:10;28.05;;;16.45;;
15116;SDS011;7659;51.038;13.786;2024-03-22T06:49:35;24.05;;;15.95;;
15116;SDS011;7659;51.038;13.786;2024-03-22T06:52:01;21.60;;;13.98;;
15116;SDS011;7659;51.038;13.786;2024-03-22T06:54:27;24.25;;;13.13;;
15116;SDS011;7659;51.038;13.786;2024-03-22T06:56:52;21.08;;;12.43;;
15116;SDS011;7659;51.038;13.786;2024-03-22T06:59:17;20.02;;;12.27;;
15116;SDS011;7659;51.038;13.786;2024-03-22T07:01:43;17.92;;;12.02;;
15116;SDS011;7659;51.038;13.786;2024-03-22T07:04:08;17.88;;;11.32;;
15116;SDS011;7659;51.038;13.786;2024-03-22T07:06:34;14.52;;;10.48;;
15116;SDS011;7659;51.038;13.786;2024-03-22T07:08:59;19.65;;;11.70;;
15116;SDS011;7659;51.038;13.786;2024-03-22T07:11:25;15.43;;;9.68;;
15116;SDS011;7659;51.038;13.786;2024-03-22T07:13:50;17.00;;;9.80;;
15116;SDS011;7659;51.038;13.786;2024-03-22T07:16:15;14.38;;;8.48;;
15116;SDS011;7659;51.038;13.786;2024-03-22T07:18:41;17.48;;;9.85;;
15116;SDS011;7659;51.038;13.786;2024-03-22T07:21:07;18.05;;;8.82;;
15116;SDS011;7659;51.038;13.786;2024-03-22T07:23:32;14.18;;;8.70;;
15116;SDS011;7659;51.038;13.786;2024-03-22T07:25:58;16.85;;;9.07;;
15116;SDS011;7659;51.038;13.786;2024-03-22T07:28:24;15.05;;;9.27;;
15116;SDS011;7659;51.038;13.786;2024-03-22T07:30:50;13.80;;;8.80;;
15116;SDS011;7659;51.038;13.786;2024-03-22T07:33:15;18.27;;;9.80;;
15116;SDS011;7659;51.038;13.786;2024-03-22T07:35:43;12.73;;;8.73;;
15116;SDS011;7659;51.038;13.786;2024-03-22T07:38:08;12.68;;;8.63;;
15116;SDS011;7659;51.038;13.786;2024-03-22T07:40:34;14.85;;;9.00;;
15116;SDS011;7659;51.038;13.786;2024-03-22T07:42:59;11.80;;;7.32;;
15116;SDS011;7659;51.038;13.786;2024-03-22T07:45:25;9.55;;;5.90;;
15116;SDS011;7659;51.038;13.786;2024-03-22T07:47:50;12.68;;;6.45;;
15116;SDS011;7659;51.038;13.786;2024-03-22T07:50:16;11.15;;;6.13;;
15116;SDS011;7659;51.038;13.786;2024-03-22T07:52:42;10.20;;;6.38;;
15116;SDS011;7659;51.038;13.786;2024-03-22T07:55:07;9.27;;;6.57;;
15116;SDS011;7659;51.038;13.786;2024-03-22T07:57:33;8.73;;;6.18;;
15116;SDS011;7659;51.038;13.786;2024-03-22T07:59:58;9.68;;;6.30;;
15116;SDS011;7659;51.038;13.786;2024-03-22T08:02:24;15.68;;;8.82;;
15116;SDS011;7659;51.038;13.786;2024-03-22T08:04:49;10.93;;;6.65;;
15116;SDS011;7659;51.038;13.786;2024-03-22T08:07:14;10.70;;;6.68;;
15116;SDS011;7659;51.038;13.786;2024-03-22T08:09:40;15.93;;;7.43;;
15116;SDS011;7659;51.038;13.786;2024-03-22T08:12:06;12.32;;;7.82;;
15116;SDS011;7659;51.038;13.786;2024-03-22T08:14:31;18.15;;;7.22;;
15116;SDS011;7659;51.038;13.786;2024-03-22T08:16:57;12.10;;;7.68;;
15116;SDS011;7659;51.038;13.786;2024-03-22T08:19:22;14.23;;;8.38;;
15116;SDS011;7659;51.038;13.786;2024-03-22T08:21:48;12.55;;;8.80;;
15116;SDS011;7659;51.038;13.786;2024-03-22T08:24:14;16.02;;;9.10;;
15116;SDS011;7659;51.038;13.786;2024-03-22T08:26:39;14.98;;;10.18;;
15116;SDS011;7659;51.038;13.786;2024-03-22T08:29:05;15.52;;;10.20;;
15116;SDS011;7659;51.038;13.786;2024-03-22T08:31:30;14.73;;;9.55;;
15116;SDS011;7659;51.038;13.786;2024-03-22T08:33:55;17.08;;;9.77;;
15116;SDS011;7659;51.038;13.786;2024-03-22T08:36:21;16.55;;;9.35;;
15116;SDS011;7659;51.038;13.786;2024-03-22T08:38:47;18.85;;;9.52;;
15116;SDS011;7659;51.038;13.786;2024-03-22T08:41:12;15.63;;;10.15;;
15116;SDS011;7659;51.038;13.786;2024-03-22T08:43:38;19.45;;;11.10;;
15116;SDS011;7659;51.038;13.786;2024-03-22T08:46:03;15.82;;;10.38;;
15116;SDS011;7659;51.038;13.786;2024-03-22T08:48:28;14.82;;;10.02;;
15116;SDS011;7659;51.038;13.786;2024-03-22T08:50:54;15.88;;;9.38;;
15116;SDS011;7659;51.038;13.786;2024-03-22T08:53:19;15.32;;;9.30;;
15116;SDS011;7659;51.038;13.786;2024-03-22T08:55:45;14.70;;;8.73;;
15116;SDS011;7659;51.038;13.786;2024-03-22T08:58:11;12.77;;;7.88;;
15116;SDS011;7659;51.038;13.786;2024-03-22T09:00:37;14.30;;;9.05;;
15116;SDS011;7659;51.038;13.786;2024-03-22T09:03:03;12.32;;;8.63;;
15116;SDS011;7659;51.038;13.786;2024-03-22T09:05:28;15.38;;;9.60;;
15116;SDS011;7659;51.038;13.786;2024-03-22T09:07:54;16.38;;;10.35;;
15116;SDS011;7659;51.038;13.786;2024-03-22T09:10:21;16.02;;;8.88;;
15116;SDS011;7659;51.038;13.786;2024-03-22T09:12:46;12.68;;;7.82;;
15116;SDS011;7659;51.038;13.786;2024-03-22T09:15:11;10.93;;;7.80;;
15116;SDS011;7659;51.038;13.786;2024-03-22T09:17:37;14.68;;;8.10;;
15116;SDS011;7659;51.038;13.786;2024-03-22T09:20:03;10.77;;;7.25;;
15116;SDS011;7659;51.038;13.786;2024-03-22T09:22:30;10.63;;;7.50;;
15116;SDS011;7659;51.038;13.786;2024-03-22T09:24:57;10.52;;;6.72;;
15116;SDS011;7659;51.038;13.786;2024-03-22T09:27:23;10.48;;;6.32;;
15116;SDS011;7659;51.038;13.786;2024-03-22T09:29:48;12.63;;;6.85;;
15116;SDS011;7659;51.038;13.786;2024-03-22T09:32:14;10.50;;;6.05;;
15116;SDS011;7659;51.038;13.786;2024-03-22T09:34:39;11.57;;;6.13;;
15116;SDS011;7659;51.038;13.786;2024-03-22T09:37:05;9.70;;;6.18;;
15116;SDS011;7659;51.038;13.786;2024-03-22T09:39:31;11.52;;;6.50;;
15116;SDS011;7659;51.038;13.786;2024-03-22T09:41:57;8.02;;;5.32;;
15116;SDS011;7659;51.038;13.786;2024-03-22T09:44:24;7.32;;;5.15;;
15116;SDS011;7659;51.038;13.786;2024-03-22T09:46:54;12.98;;;5.88;;
15116;SDS011;7659;51.038;13.786;2024-03-22T09:49:21;7.93;;;5.82;;
15116;SDS011;7659;51.038;13.786;2024-03-22T09:51:47;6.95;;;4.80;;
15116;SDS011;7659;51.038;13.786;2024-03-22T09:54:14;14.40;;;4.95;;
15116;SDS011;7659;51.038;13.786;2024-03-22T09:56:39;6.70;;;4.40;;
15116;SDS011;7659;51.038;13.786;2024-03-22T09:59:05;7.40;;;4.85;;
15116;SDS011;7659;51.038;13.786;2024-03-22T10:01:31;7.53;;;4.85;;
15116;SDS011;7659;51.038;13.786;2024-03-22T10:03:57;9.80;;;4.57;;
15116;SDS011;7659;51.038;13.786;2024-03-22T10:06:22;10.48;;;4.80;;
15116;SDS011;7659;51.038;13.786;2024-03-22T10:08:48;9.60;;;4.75;;
15116;SDS011;7659;51.038;13.786;2024-03-22T10:11:13;6.88;;;4.65;;
15116;SDS011;7659;51.038;13.786;2024-03-22T10:13:39;7.78;;;4.72;;
15116;SDS011;7659;51.038;13.786;2024-03-22T10:16:05;20.63;;;5.43;;
15116;SDS011;7659;51.038;13.786;2024-03-22T10:18:32;6.93;;;4.90;;
15116;SDS011;7659;51.038;13.786;2024-03-22T10:21:04;7.93;;;4.95;;
15116;SDS011;7659;51.038;13.786;2024-03-22T10:23:30;7.82;;;4.22;;
15116;SDS011;7659;51.038;13.786;2024-03-22T10:25:56;8.85;;;3.67;;
15116;SDS011;7659;51.038;13.786;2024-03-22T10:28:21;5.13;;;3.90;;
15116;SDS011;7659;51.038;13.786;2024-03-22T10:30:47;6.05;;;3.65;;
15116;SDS011;7659;51.038;13.786;2024-03-22T10:33:14;6.03;;;4.03;;
15116;SDS011;7659;51.038;13.786;2024-03-22T10:35:40;10.23;;;4.38;;
15116;SDS011;7659;51.038;13.786;2024-03-22T10:38:06;9.90;;;4.38;;
15116;SDS011;7659;51.038;13.786;2024-03-22T10:40:32;5.53;;;3.60;;
15116;SDS011;7659;51.038;13.786;2024-03-22T10:43:00;6.88;;;4.00;;
15116;SDS011;7659;51.038;13.786;2024-03-22T10:45:27;11.00;;;3.63;;
15116;SDS011;7659;51.038;13.786;2024-03-22T10:47:55;5.30;;;3.67;;
15116;SDS011;7659;51.038;13.786;2024-03-22T10:50:20;13.13;;;3.72;;
15116;SDS011;7659;51.038;13.786;2024-03-22T10:52:49;4.90;;;3.25;;
15116;SDS011;7659;51.038;13.786;2024-03-22T10:55:28;8.90;;;3.35;;
15116;SDS011;7659;51.038;13.786;2024-03-22T10:57:56;7.90;;;3.67;;
15116;SDS011;7659;51.038;13.786;2024-03-22T11:00:32;7.28;;;3.38;;
15116;SDS011;7659;51.038;13.786;2024-03-22T11:02:58;5.00;;;3.17;;
15116;SDS011;7659;51.038;13.786;2024-03-22T11:05:23;4.70;;;3.70;;
15116;SDS011;7659;51.038;13.786;2024-03-22T11:08:01;5.88;;;3.42;;
15116;SDS011;7659;51.038;13.786;2024-03-22T11:10:29;4.85;;;3.25;;
15116;SDS011;7659;51.038;13.786;2024-03-22T11:13:01;8.48;;;3.70;;
15116;SDS011;7659;51.038;13.786;2024-03-22T11:15:28;4.53;;;2.90;;
15116;SDS011;7659;51.038;13.786;2024-03-22T11:17:53;6.57;;;2.90;;
15116;SDS011;7659;51.038;13.786;2024-03-22T11:20:19;5.53;;;3.38;;
15116;SDS011;7659;51.038;13.786;2024-03-22T11:22:44;3.95;;;3.05;;
15116;SDS011;7659;51.038;13.786;2024-03-22T11:25:10;4.15;;;3.08;;
15116;SDS011;7659;51.038;13.786;2024-03-22T11:27:35;5.93;;;3.28;;
15116;SDS011;7659;51.038;13.786;2024-03-22T11:30:01;4.80;;;3.05;;
15116;SDS011;7659;51.038;13.786;2024-03-22T11:32:28;4.90;;;2.92;;
15116;SDS011;7659;51.038;13.786;2024-03-22T11:34:54;8.02;;;3.58;;
15116;SDS011;7659;51.038;13.786;2024-03-22T11:37:19;8.07;;;3.60;;
15116;SDS011;7659;51.038;13.786;2024-03-22T11:39:45;7.47;;;3.40;;
15116;SDS011;7659;51.038;13.786;2024-03-22T11:42:10;5.78;;;3.30;;
15116;SDS011;7659;51.038;13.786;2024-03-22T11:44:36;4.10;;;2.97;;
15116;SDS011;7659;51.038;13.786;2024-03-22T11:47:03;5.35;;;3.53;;
15116;SDS011;7659;51.038;13.786;2024-03-22T11:49:29;4.97;;;3.55;;
15116;SDS011;7659;51.038;13.786;2024-03-22T11:51:58;5.75;;;3.28;;
15116;SDS011;7659;51.038;13.786;2024-03-22T11:54:23;6.13;;;3.20;;
15116;SDS011;7659;51.038;13.786;2024-03-22T11:56:51;8.05;;;3.78;;
15116;SDS011;7659;51.038;13.786;2024-03-22T11:59:19;4.78;;;3.10;;
15116;SDS011;7659;51.038;13.786;2024-03-22T12:01:44;6.75;;;3.10;;
15116;SDS011;7659;51.038;13.786;2024-03-22T12:04:10;7.45;;;3.00;;
15116;SDS011;7659;51.038;13.786;2024-03-22T12:06:44;11.43;;;3.40;;
15116;SDS011;7659;51.038;13.786;2024-03-22T12:09:10;8.18;;;3.97;;
15116;SDS011;7659;51.038;13.786;2024-03-22T12:11:37;10.02;;;3.45;;
15116;SDS011;7659;51.038;13.786;2024-03-22T12:14:02;9.63;;;3.35;;
15116;SDS011;7659;51.038;13.786;2024-03-22T12:16:28;4.28;;;2.80;;
15116;SDS011;7659;51.038;13.786;2024-03-22T12:18:53;4.82;;;3.15;;
15116;SDS011;7659;51.038;13.786;2024-03-22T12:21:19;7.90;;;3.95;;
15116;SDS011;7659;51.038;13.786;2024-03-22T12:23:44;5.32;;;3.25;;
15116;SDS011;7659;51.038;13.786;2024-03-22T12:26:12;6.68;;;3.80;;
15116;SDS011;7659;51.038;13.786;2024-03-22T12:28:37;5.07;;;3.50;;
15116;SDS011;7659;51.038;13.786;2024-03-22T12:31:04;7.57;;;4.30;;
15116;SDS011;7659;51.038;13.786;2024-03-22T12:33:29;5.90;;;4.20;;
15116;SDS011;7659;51.038;13.786;2024-03-22T12:35:55;5.57;;;3.95;;
15116;SDS011;7659;51.038;13.786;2024-03-22T12:38:20;9.52;;;3.83;;
15116;SDS011;7659;51.038;13.786;2024-03-22T12:40:45;6.55;;;3.70;;
15116;SDS011;7659;51.038;13.786;2024-03-22T12:43:11;7.45;;;3.97;;
15116;SDS011;7659;51.038;13.786;2024-03-22T12:45:37;7.30;;;4.07;;
15116;SDS011;7659;51.038;13.786;2024-03-22T12:48:02;7.22;;;4.32;;
15116;SDS011;7659;51.038;13.786;2024-03-22T12:50:28;12.30;;;4.57;;
15116;SDS011;7659;51.038;13.786;2024-03-22T12:52:53;11.40;;;4.40;;
15116;SDS011;7659;51.038;13.786;2024-03-22T12:55:19;8.05;;;4.88;;
15116;SDS011;7659;51.038;13.786;2024-03-22T12:57:44;9.63;;;4.55;;
15116;SDS011;7659;51.038;13.786;2024-03-22T13:00:10;8.45;;;4.75;;
15116;SDS011;7659;51.038;13.786;2024-03-22T13:02:41;7.15;;;4.13;;
15116;SDS011;7659;51.038;13.786;2024-03-22T13:05:07;11.30;;;4.55;;
15116;SDS011;7659;51.038;13.786;2024-03-22T13:07:33;9.43;;;4.80;;
15116;SDS011;7659;51.038;13.786;2024-03-22T13:09:58;8.27;;;4.70;;
15116;SDS011;7659;51.038;13.786;2024-03-22T13:12:25;9.88;;;5.13;;
15116;SDS011;7659;51.038;13.786;2024-03-22T13:14:51;6.85;;;4.53;;
15116;SDS011;7659;51.038;13.786;2024-03-22T13:17:18;6.05;;;4.18;;
15116;SDS011;7659;51.038;13.786;2024-03-22T13:19:43;10.95;;;4.60;;
15116;SDS011;7659;51.038;13.786;2024-03-22T13:22:09;10.65;;;4.47;;
15116;SDS011;7659;51.038;13.786;2024-03-22T13:24:34;7.63;;;4.15;;
15116;SDS011;7659;51.038;13.786;2024-03-22T13:27:00;6.88;;;4.50;;
15116;SDS011;7659;51.038;13.786;2024-03-22T13:29:26;7.50;;;5.15;;
15116;SDS011;7659;51.038;13.786;2024-03-22T13:31:52;6.55;;;3.92;;
15116;SDS011;7659;51.038;13.786;2024-03-22T13:34:17;9.43;;;5.05;;
15116;SDS011;7659;51.038;13.786;2024-03-22T13:36:42;6.20;;;4.43;;
15116;SDS011;7659;51.038;13.786;2024-03-22T13:39:08;10.70;;;5.22;;
15116;SDS011;7659;51.038;13.786;2024-03-22T13:41:36;7.05;;;4.47;;
15116;SDS011;7659;51.038;13.786;2024-03-22T13:44:01;10.30;;;5.07;;
15116;SDS011;7659;51.038;13.786;2024-03-22T13:46:31;8.82;;;4.65;;
15116;SDS011;7659;51.038;13.786;2024-03-22T13:48:56;8.23;;;4.25;;
15116;SDS011;7659;51.038;13.786;2024-03-22T13:51:22;6.45;;;4.78;;
15116;SDS011;7659;51.038;13.786;2024-03-22T13:53:49;8.10;;;5.07;;
15116;SDS011;7659;51.038;13.786;2024-03-22T13:56:14;9.05;;;4.90;;
15116;SDS011;7659;51.038;13.786;2024-03-22T13:58:40;8.98;;;4.80;;
15116;SDS011;7659;51.038;13.786;2024-03-22T14:01:05;8.52;;;5.03;;
15116;SDS011;7659;51.038;13.786;2024-03-22T14:03:30;19.63;;;5.82;;
15116;SDS011;7659;51.038;13.786;2024-03-22T14:05:56;10.18;;;5.25;;
15116;SDS011;7659;51.038;13.786;2024-03-22T14:08:21;7.57;;;4.93;;
15116;SDS011;7659;51.038;13.786;2024-03-22T14:10:47;10.27;;;5.30;;
15116;SDS011;7659;51.038;13.786;2024-03-22T14:13:12;10.38;;;4.95;;
15116;SDS011;7659;51.038;13.786;2024-03-22T14:15:38;11.13;;;5.10;;
15116;SDS011;7659;51.038;13.786;2024-03-22T14:18:04;7.30;;;5.03;;
15116;SDS011;7659;51.038;13.786;2024-03-22T14:20:30;11.10;;;5.22;;
15116;SDS011;7659;51.038;13.786;2024-03-22T14:22:56;7.07;;;4.63;;